sensor_id;sensor_type;location;lat;lon;timestamp;pressure;altitude;pressure_sealevel;temperature;humidity
788;BME280;16074;42.708;23.312;2023-05-20T00:02:29;141542.09;;;13.38;100.00
788;BME280;16074;42.708;23.312;2023-05-20T00:04:57;141507.09;;;13.23;100.00
788;BME280;16074;42.708;23.312;2023-05-20T00:07:26;141521.59;;;13.29;100.00
788;BME280;16074;42.708;23.312;2023-05-20T00:09:55;141513.16;;;13.26;100.00
788;BME280;16074;42.708;23.312;2023-05-20T00:12:23;141548.16;;;13.40;100.00
788;BME280;16074;42.708;23.312;2023-05-20T00:14:51;141551.75;;;13.42;100.00
788;BME280;16074;42.708;23.312;2023-05-20T00:17:21;141565.06;;;13.47;100.00
788;BME280;16074;42.708;23.312;2023-05-20T00:19:53;141555.41;;;13.43;100.00
788;BME280;16074;42.708;23.312;2023-05-20T00:22:21;141503.50;;;13.22;100.00
788;BME280;16074;42.708;23.312;2023-05-20T00:24:49;141520.41;;;13.29;100.00
788;BME280;16074;42.708;23.312;2023-05-20T00:27:18;141540.91;;;13.37;100.00
788;BME280;16074;42.708;23.312;2023-05-20T00:29:46;141497.44;;;13.19;100.00
788;BME280;16074;42.708;23.312;2023-05-20T00:32:14;141492.59;;;13.17;100.00
788;BME280;16074;42.708;23.312;2023-05-20T00:34:44;141405.69;;;12.82;100.00
788;BME280;16074;42.708;23.312;2023-05-20T00:37:14;141373.13;;;12.68;100.00
788;BME280;16074;42.708;23.312;2023-05-20T00:39:42;141393.63;;;12.77;100.00
788;BME280;16074;42.708;23.312;2023-05-20T00:42:10;141339.31;;;12.54;100.00
788;BME280;16074;42.708;23.312;2023-05-20T00:44:39;141411.69;;;12.84;100.00
788;BME280;16074;42.708;23.312;2023-05-20T00:47:08;141385.19;;;12.73;100.00
788;BME280;16074;42.708;23.312;2023-05-20T00:49:36;141326.03;;;12.49;100.00
788;BME280;16074;42.708;23.312;2023-05-20T00:52:05;141301.94;;;12.39;100.00
788;BME280;16074;42.708;23.312;2023-05-20T00:54:36;141286.25;;;12.32;100.00
788;BME280;16074;42.708;23.312;2023-05-20T00:57:06;141263.34;;;12.23;100.00
788;BME280;16074;42.708;23.312;2023-05-20T00:59:35;141246.44;;;12.16;100.00
788;BME280;16074;42.708;23.312;2023-05-20T01:02:04;141229.56;;;12.09;100.00
788;BME280;16074;42.708;23.312;2023-05-20T01:04:33;141222.31;;;12.06;100.00
788;BME280;16074;42.708;23.312;2023-05-20T01:07:03;141234.38;;;12.11;100.00
788;BME280;16074;42.708;23.312;2023-05-20T01:09:32;141253.69;;;12.19;100.00
788;BME280;16074;42.708;23.312;2023-05-20T01:12:09;141299.53;;;12.38;100.00
788;BME280;16074;42.708;23.312;2023-05-20T01:14:46;141327.25;;;12.49;100.00
788;BME280;16074;42.708;23.312;2023-05-20T01:17:17;141340.50;;;12.55;100.00
788;BME280;16074;42.708;23.312;2023-05-20T01:19:47;141309.19;;;12.42;100.00
788;BME280;16074;42.708;23.312;2023-05-20T01:22:16;141346.56;;;12.57;100.00
788;BME280;16074;42.708;23.312;2023-05-20T01:24:45;141357.41;;;12.62;100.00
788;BME280;16074;42.708;23.312;2023-05-20T01:27:15;141345.34;;;12.57;100.00
788;BME280;16074;42.708;23.312;2023-05-20T01:29:46;141340.50;;;12.55;100.00
788;BME280;16074;42.708;23.312;2023-05-20T01:32:19;141317.59;;;12.45;100.00
788;BME280;16074;42.708;23.312;2023-05-20T01:34:49;141342.91;;;12.56;100.00
788;BME280;16074;42.708;23.312;2023-05-20T01:37:21;141348.97;;;12.58;100.00
788;BME280;16074;42.708;23.312;2023-05-20T01:39:52;141338.09;;;12.54;100.00
788;BME280;16074;42.708;23.312;2023-05-20T01:42:22;141374.31;;;12.69;100.00
788;BME280;16074;42.708;23.312;2023-05-20T01:44:53;141393.63;;;12.77;100.00
788;BME280;16074;42.708;23.312;2023-05-20T01:47:22;141410.50;;;12.84;100.00
788;BME280;16074;42.708;23.312;2023-05-20T01:49:50;141428.66;;;12.91;100.00
788;BME280;16074;42.708;23.312;2023-05-20T01:52:20;141426.19;;;12.90;100.00
788;BME280;16074;42.708;23.312;2023-05-20T01:54:49;141423.75;;;12.89;100.00
788;BME280;16074;42.708;23.312;2023-05-20T01:57:19;141422.59;;;12.89;100.00
788;BME280;16074;42.708;23.312;2023-05-20T01:59:49;141441.94;;;12.97;100.00
788;BME280;16074;42.708;23.312;2023-05-20T02:02:18;141449.19;;;13.00;100.00
788;BME280;16074;42.708;23.312;2023-05-20T02:04:49;141456.44;;;13.03;100.00
788;BME280;16074;42.708;23.312;2023-05-20T02:07:17;141452.78;;;13.01;100.00
788;BME280;16074;42.708;23.312;2023-05-20T02:09:46;141427.47;;;12.91;100.00
788;BME280;16074;42.708;23.312;2023-05-20T02:12:15;141415.34;;;12.86;100.00
788;BME280;16074;42.708;23.312;2023-05-20T02:14:46;141432.28;;;12.93;100.00
788;BME280;16074;42.708;23.312;2023-05-20T02:17:16;141412.94;;;12.85;100.00
788;BME280;16074;42.708;23.312;2023-05-20T02:19:45;141410.50;;;12.84;100.00
788;BME280;16074;42.708;23.312;2023-05-20T02:22:13;141410.50;;;12.84;100.00
788;BME280;16074;42.708;23.312;2023-05-20T02:24:42;141364.66;;;12.65;100.00
788;BME280;16074;42.708;23.312;2023-05-20T02:27:11;141352.56;;;12.60;100.00
788;BME280;16074;42.708;23.312;2023-05-20T02:29:41;141361.06;;;12.63;100.00
788;BME280;16074;42.708;23.312;2023-05-20T02:32:12;141369.47;;;12.67;100.00
788;BME280;16074;42.708;23.312;2023-05-20T02:34:40;141373.13;;;12.68;100.00
788;BME280;16074;42.708;23.312;2023-05-20T02:37:08;141380.34;;;12.71;100.00
788;BME280;16074;42.708;23.312;2023-05-20T02:39:37;141386.38;;;12.74;100.00
788;BME280;16074;42.708;23.312;2023-05-20T02:42:05;141382.78;;;12.72;100.00
788;BME280;16074;42.708;23.312;2023-05-20T02:44:33;141394.78;;;12.77;100.00
788;BME280;16074;42.708;23.312;2023-05-20T02:47:02;141388.78;;;12.75;100.00
788;BME280;16074;42.708;23.312;2023-05-20T02:49:32;141381.53;;;12.72;100.00
788;BME280;16074;42.708;23.312;2023-05-20T02:52:01;141295.88;;;12.36;100.00
788;BME280;16074;42.708;23.312;2023-05-20T02:54:30;141277.81;;;12.29;100.00
788;BME280;16074;42.708;23.312;2023-05-20T02:56:58;141233.22;;;12.10;100.00
788;BME280;16074;42.708;23.312;2023-05-20T02:59:26;141254.88;;;12.19;100.00
788;BME280;16074;42.708;23.312;2023-05-20T03:01:55;141240.44;;;12.13;100.00
788;BME280;16074;42.708;23.312;2023-05-20T03:04:23;141242.84;;;12.14;100.00
788;BME280;16074;42.708;23.312;2023-05-20T03:06:54;141221.16;;;12.05;100.00
788;BME280;16074;42.708;23.312;2023-05-20T03:09:23;141252.47;;;12.18;100.00
788;BME280;16074;42.708;23.312;2023-05-20T03:11:52;141252.47;;;12.18;100.00
788;BME280;16074;42.708;23.312;2023-05-20T03:14:20;141269.34;;;12.25;100.00
788;BME280;16074;42.708;23.312;2023-05-20T03:16:49;141277.81;;;12.29;100.00
788;BME280;16074;42.708;23.312;2023-05-20T03:19:18;141282.66;;;12.31;100.00
788;BME280;16074;42.708;23.312;2023-05-20T03:21:48;141297.13;;;12.37;100.00
788;BME280;16074;42.708;23.312;2023-05-20T03:24:18;141310.38;;;12.42;100.00
788;BME280;16074;42.708;23.312;2023-05-20T03:26:49;141307.97;;;12.41;100.00
788;BME280;16074;42.708;23.312;2023-05-20T03:29:18;141324.84;;;12.48;100.00
788;BME280;16074;42.708;23.312;2023-05-20T03:31:47;141326.03;;;12.49;100.00
788;BME280;16074;42.708;23.312;2023-05-20T03:34:15;141324.84;;;12.48;100.00
788;BME280;16074;42.708;23.312;2023-05-20T03:36:44;141318.84;;;12.46;100.00
788;BME280;16074;42.708;23.312;2023-05-20T03:39:13;141321.19;;;12.47;100.00
788;BME280;16074;42.708;23.312;2023-05-20T03:41:44;141327.25;;;12.49;100.00
788;BME280;16074;42.708;23.312;2023-05-20T03:44:12;141324.84;;;12.48;100.00
788;BME280;16074;42.708;23.312;2023-05-20T03:46:41;141326.03;;;12.49;100.00
788;BME280;16074;42.708;23.312;2023-05-20T03:49:09;141340.50;;;12.55;100.00
788;BME280;16074;42.708;23.312;2023-05-20T03:51:38;141350.16;;;12.59;100.00
788;BME280;16074;42.708;23.312;2023-05-20T03:54:10;141357.41;;;12.62;100.00
788;BME280;16074;42.708;23.312;2023-05-20T03:56:39;141367.06;;;12.66;100.00
788;BME280;16074;42.708;23.312;2023-05-20T03:59:09;141375.53;;;12.69;100.00
788;BME280;16074;42.708;23.312;2023-05-20T04:01:38;141376.72;;;12.70;100.00
788;BME280;16074;42.708;23.312;2023-05-20T04:04:06;141392.38;;;12.76;100.00
788;BME280;16074;42.708;23.312;2023-05-20T04:06:35;141396.03;;;12.78;100.00
788;BME280;16074;42.708;23.312;2023-05-20T04:09:03;141396.03;;;12.78;100.00
788;BME280;16074;42.708;23.312;2023-05-20T04:11:32;141392.38;;;12.76;100.00
788;BME280;16074;42.708;23.312;2023-05-20T04:14:00;141397.22;;;12.78;100.00
788;BME280;16074;42.708;23.312;2023-05-20T04:16:30;141391.19;;;12.76;100.00
788;BME280;16074;42.708;23.312;2023-05-20T04:18:59;141405.69;;;12.82;100.00
788;BME280;16074;42.708;23.312;2023-05-20T04:21:29;141416.53;;;12.86;100.00
788;BME280;16074;42.708;23.312;2023-05-20T04:23:57;141350.16;;;12.59;100.00
788;BME280;16074;42.708;23.312;2023-05-20T04:26:26;141283.81;;;12.31;100.00
788;BME280;16074;42.708;23.312;2023-05-20T04:28:55;141306.78;;;12.41;100.00
788;BME280;16074;42.708;23.312;2023-05-20T04:31:26;141324.84;;;12.48;100.00
788;BME280;16074;42.708;23.312;2023-05-20T04:33:56;141351.41;;;12.59;100.00
788;BME280;16074;42.708;23.312;2023-05-20T04:36:24;141383.97;;;12.73;100.00
788;BME280;16074;42.708;23.312;2023-05-20T04:38:54;141402.03;;;12.80;100.00
788;BME280;16074;42.708;23.312;2023-05-20T04:41:23;141421.34;;;12.88;100.00
788;BME280;16074;42.708;23.312;2023-05-20T04:43:51;141431.06;;;12.92;100.00
788;BME280;16074;42.708;23.312;2023-05-20T04:46:20;141446.78;;;12.99;100.00
788;BME280;16074;42.708;23.312;2023-05-20T04:48:49;141455.19;;;13.02;100.00
788;BME280;16074;42.708;23.312;2023-05-20T04:51:18;141478.13;;;13.11;100.00
788;BME280;16074;42.708;23.312;2023-05-20T04:53:46;141487.78;;;13.15;100.00
788;BME280;16074;42.708;23.312;2023-05-20T04:56:16;141504.69;;;13.22;100.00
788;BME280;16074;42.708;23.312;2023-05-20T04:58:45;141497.44;;;13.19;100.00
788;BME280;16074;42.708;23.312;2023-05-20T05:01:13;141498.66;;;13.20;100.00
788;BME280;16074;42.708;23.312;2023-05-20T05:03:41;141538.50;;;13.36;100.00
788;BME280;16074;42.708;23.312;2023-05-20T05:06:10;141526.41;;;13.31;100.00
788;BME280;16074;42.708;23.312;2023-05-20T05:08:40;141549.34;;;13.41;100.00
788;BME280;16074;42.708;23.312;2023-05-20T05:11:08;141565.06;;;13.47;100.00
788;BME280;16074;42.708;23.312;2023-05-20T05:13:36;141580.75;;;13.54;100.00
788;BME280;16074;42.708;23.312;2023-05-20T05:16:05;141616.97;;;13.69;100.00
788;BME280;16074;42.708;23.312;2023-05-20T05:18:34;141635.06;;;13.76;100.00
788;BME280;16074;42.708;23.312;2023-05-20T05:21:04;141658.03;;;13.86;100.00
788;BME280;16074;42.708;23.312;2023-05-20T05:23:34;141673.72;;;13.92;100.00
788;BME280;16074;42.708;23.312;2023-05-20T05:26:04;141648.38;;;13.82;100.00
788;BME280;16074;42.708;23.312;2023-05-20T05:28:32;141620.56;;;13.70;100.00
788;BME280;16074;42.708;23.312;2023-05-20T05:31:01;141674.91;;;13.93;100.00
788;BME280;16074;42.708;23.312;2023-05-20T05:33:29;141706.34;;;14.06;100.00
788;BME280;16074;42.708;23.312;2023-05-20T05:35:58;141683.41;;;13.96;100.00
788;BME280;16074;42.708;23.312;2023-05-20T05:38:28;141685.81;;;13.97;100.00
788;BME280;16074;42.708;23.312;2023-05-20T05:40:56;141719.66;;;14.11;100.00
788;BME280;16074;42.708;23.312;2023-05-20T05:43:26;141752.31;;;14.25;100.00
788;BME280;16074;42.708;23.312;2023-05-20T05:45:56;141749.88;;;14.24;100.00
788;BME280;16074;42.708;23.312;2023-05-20T05:48:24;141788.56;;;14.39;100.00
788;BME280;16074;42.708;23.312;2023-05-20T05:50:53;141819.94;;;14.52;100.00
788;BME280;16074;42.708;23.312;2023-05-20T05:53:21;141865.88;;;14.71;100.00
788;BME280;16074;42.708;23.312;2023-05-20T05:55:51;141881.59;;;14.78;100.00
788;BME280;16074;42.708;23.312;2023-05-20T05:58:19;141919.09;;;14.93;100.00
788;BME280;16074;42.708;23.312;2023-05-20T06:00:51;141963.81;;;15.12;100.00
788;BME280;16074;42.708;23.312;2023-05-20T06:03:20;142003.78;;;15.28;100.00
788;BME280;16074;42.708;23.312;2023-05-20T06:05:49;142026.72;;;15.38;100.00
788;BME280;16074;42.708;23.312;2023-05-20T06:08:19;142076.31;;;15.58;100.00
788;BME280;16074;42.708;23.312;2023-05-20T06:10:48;142121.13;;;15.76;100.00
788;BME280;16074;42.708;23.312;2023-05-20T06:13:25;142141.66;;;15.85;100.00
788;BME280;16074;42.708;23.312;2023-05-20T06:15:56;142177.97;;;16.00;100.00
788;BME280;16074;42.708;23.312;2023-05-20T06:18:25;142203.38;;;16.10;100.00
788;BME280;16074;42.708;23.312;2023-05-20T06:20:57;142237.28;;;16.24;100.00
788;BME280;16074;42.708;23.312;2023-05-20T06:23:26;142265.16;;;16.36;100.00
788;BME280;16074;42.708;23.312;2023-05-20T06:25:58;142313.59;;;16.56;100.00
788;BME280;16074;42.708;23.312;2023-05-20T06:28:27;142349.94;;;16.71;100.00
788;BME280;16074;42.708;23.312;2023-05-20T06:30:57;142394.72;;;16.89;100.00
788;BME280;16074;42.708;23.312;2023-05-20T06:33:29;142440.72;;;17.08;100.00
788;BME280;16074;42.708;23.312;2023-05-20T06:36:01;142500.13;;;17.32;100.00
788;BME280;16074;42.708;23.312;2023-05-20T06:38:29;142511.06;;;17.37;100.00
788;BME280;16074;42.708;23.312;2023-05-20T06:40:58;142555.88;;;17.55;100.00
788;BME280;16074;42.708;23.312;2023-05-20T06:43:27;142581.31;;;17.66;100.00
788;BME280;16074;42.708;23.312;2023-05-20T06:46:23;142643.13;;;17.91;99.46
788;BME280;16074;42.708;23.312;2023-05-20T06:49:00;142686.78;;;18.09;95.51
788;BME280;16074;42.708;23.312;2023-05-20T06:51:29;142728.06;;;18.26;95.84
788;BME280;16074;42.708;23.312;2023-05-20T06:53:59;142778.97;;;18.47;93.20
788;BME280;16074;42.708;23.312;2023-05-20T06:56:27;142789.91;;;18.51;85.50
788;BME280;16074;42.708;23.312;2023-05-20T06:58:56;142832.34;;;18.69;86.38
788;BME280;16074;42.708;23.312;2023-05-20T07:01:26;142856.63;;;18.79;82.97
788;BME280;16074;42.708;23.312;2023-05-20T07:03:55;142897.88;;;18.96;82.65
788;BME280;16074;42.708;23.312;2023-05-20T07:06:24;142941.59;;;19.14;76.85
788;BME280;16074;42.708;23.312;2023-05-20T07:08:53;142956.16;;;19.20;74.72
788;BME280;16074;42.708;23.312;2023-05-20T07:11:21;142997.44;;;19.36;72.42
788;BME280;16074;42.708;23.312;2023-05-20T07:13:49;143021.72;;;19.46;72.76
788;BME280;16074;42.708;23.312;2023-05-20T07:16:18;143043.53;;;19.55;70.67
788;BME280;16074;42.708;23.312;2023-05-20T07:18:53;143079.94;;;19.70;71.96
788;BME280;16074;42.708;23.312;2023-05-20T07:21:22;143128.53;;;19.90;71.86
788;BME280;16074;42.708;23.312;2023-05-20T07:24:10;143214.81;;;20.26;70.72
788;BME280;16074;42.708;23.312;2023-05-20T07:26:38;143245.16;;;20.38;66.72
788;BME280;16074;42.708;23.312;2023-05-20T07:29:07;143309.56;;;20.64;66.75
788;BME280;16074;42.708;23.312;2023-05-20T07:31:37;143366.72;;;20.88;62.58
788;BME280;16074;42.708;23.312;2023-05-20T07:34:07;143433.56;;;21.15;61.12
788;BME280;16074;42.708;23.312;2023-05-20T07:36:36;143494.34;;;21.40;58.35
788;BME280;16074;42.708;23.312;2023-05-20T07:39:05;143614.75;;;21.89;56.48
788;BME280;16074;42.708;23.312;2023-05-20T07:41:40;143651.28;;;22.04;54.10
788;BME280;16074;42.708;23.312;2023-05-20T07:44:09;143552.75;;;21.64;55.72
788;BME280;16074;42.708;23.312;2023-05-20T07:46:42;143684.09;;;22.18;55.07
788;BME280;16074;42.708;23.312;2023-05-20T07:49:12;143709.69;;;22.28;54.58
788;BME280;16074;42.708;23.312;2023-05-20T07:51:42;143781.53;;;22.58;55.12
788;BME280;16074;42.708;23.312;2023-05-20T07:54:10;143830.19;;;22.78;53.05
788;BME280;16074;42.708;23.312;2023-05-20T07:56:39;143892.28;;;23.03;51.05
788;BME280;16074;42.708;23.312;2023-05-20T07:59:09;143949.53;;;23.26;52.31
788;BME280;16074;42.708;23.312;2023-05-20T08:01:41;144009.25;;;23.51;49.93
788;BME280;16074;42.708;23.312;2023-05-20T08:04:12;144062.81;;;23.73;50.22
788;BME280;16074;42.708;23.312;2023-05-20T08:06:41;144071.38;;;23.76;49.38
788;BME280;16074;42.708;23.312;2023-05-20T08:09:15;144103.06;;;23.89;49.69
788;BME280;16074;42.708;23.312;2023-05-20T08:11:48;144097.00;;;23.87;49.43
788;BME280;16074;42.708;23.312;2023-05-20T08:14:16;144201.78;;;24.29;49.35
788;BME280;16074;42.708;23.312;2023-05-20T08:16:48;144250.59;;;24.49;49.25
788;BME280;16074;42.708;23.312;2023-05-20T08:19:22;144273.72;;;24.59;49.00
788;BME280;16074;42.708;23.312;2023-05-20T08:21:50;144285.91;;;24.64;48.77
788;BME280;16074;42.708;23.312;2023-05-20T08:24:19;144345.66;;;24.88;47.37
788;BME280;16074;42.708;23.312;2023-05-20T08:26:48;144345.66;;;24.88;47.48
788;BME280;16074;42.708;23.312;2023-05-20T08:29:17;144295.69;;;24.68;46.71
788;BME280;16074;42.708;23.312;2023-05-20T08:31:45;144399.34;;;25.10;47.74
788;BME280;16074;42.708;23.312;2023-05-20T08:34:15;144426.22;;;25.21;46.34
788;BME280;16074;42.708;23.312;2023-05-20T08:36:46;144433.50;;;25.24;46.23
788;BME280;16074;42.708;23.312;2023-05-20T08:39:14;144477.41;;;25.42;46.29
788;BME280;16074;42.708;23.312;2023-05-20T08:41:45;144584.81;;;25.86;45.69
788;BME280;16074;42.708;23.312;2023-05-20T08:44:16;144554.28;;;25.73;44.94
788;BME280;16074;42.708;23.312;2023-05-20T08:46:46;144651.94;;;26.13;44.63
788;BME280;16074;42.708;23.312;2023-05-20T08:49:17;144676.34;;;26.23;45.70
788;BME280;16074;42.708;23.312;2023-05-20T08:51:47;144703.22;;;26.34;44.99
788;BME280;16074;42.708;23.312;2023-05-20T08:54:16;144793.59;;;26.71;44.88
788;BME280;16074;42.708;23.312;2023-05-20T08:56:47;144805.81;;;26.76;43.35
788;BME280;16074;42.708;23.312;2023-05-20T08:59:16;144742.34;;;26.50;44.01
788;BME280;16074;42.708;23.312;2023-05-20T09:01:45;144775.31;;;26.64;43.80
788;BME280;16074;42.708;23.312;2023-05-20T09:04:13;144783.84;;;26.67;43.51
788;BME280;16074;42.708;23.312;2023-05-20T09:06:42;144666.59;;;26.19;44.51
788;BME280;16074;42.708;23.312;2023-05-20T09:09:12;144658.06;;;26.16;44.58
788;BME280;16074;42.708;23.312;2023-05-20T09:11:42;144614.13;;;25.98;44.35
788;BME280;16074;42.708;23.312;2023-05-20T09:14:10;144622.69;;;26.01;43.89
788;BME280;16074;42.708;23.312;2023-05-20T09:16:39;144689.81;;;26.29;44.20
788;BME280;16074;42.708;23.312;2023-05-20T09:19:09;144705.66;;;26.35;43.38
788;BME280;16074;42.708;23.312;2023-05-20T09:21:40;144651.94;;;26.13;43.95
788;BME280;16074;42.708;23.312;2023-05-20T09:24:08;144608.03;;;25.95;43.65
788;BME280;16074;42.708;23.312;2023-05-20T09:26:38;144627.56;;;26.03;43.95
788;BME280;16074;42.708;23.312;2023-05-20T09:29:06;144637.28;;;26.07;44.51
788;BME280;16074;42.708;23.312;2023-05-20T09:31:35;144737.47;;;26.48;44.16
788;BME280;16074;42.708;23.312;2023-05-20T09:34:05;144804.63;;;26.75;43.27
788;BME280;16074;42.708;23.312;2023-05-20T09:36:34;144833.94;;;26.87;43.31
788;BME280;16074;42.708;23.312;2023-05-20T09:39:03;144923.09;;;27.24;42.23
788;BME280;16074;42.708;23.312;2023-05-20T09:41:37;144901.16;;;27.15;43.01
788;BME280;16074;42.708;23.312;2023-05-20T09:44:07;144881.63;;;27.07;41.62
788;BME280;16074;42.708;23.312;2023-05-20T09:46:37;144915.78;;;27.21;42.12
788;BME280;16074;42.708;23.312;2023-05-20T09:49:06;144935.31;;;27.29;41.20
788;BME280;16074;42.708;23.312;2023-05-20T09:51:35;144913.34;;;27.20;41.21
788;BME280;16074;42.708;23.312;2023-05-20T09:54:04;144975.69;;;27.45;41.80
788;BME280;16074;42.708;23.312;2023-05-20T09:56:34;145003.78;;;27.57;41.41
788;BME280;16074;42.708;23.312;2023-05-20T09:59:04;145063.69;;;27.81;40.66
788;BME280;16074;42.708;23.312;2023-05-20T10:01:34;145135.81;;;28.10;40.58
788;BME280;16074;42.708;23.312;2023-05-20T10:04:04;145194.50;;;28.34;39.68
788;BME280;16074;42.708;23.312;2023-05-20T10:07:01;145195.75;;;28.35;38.98
788;BME280;16074;42.708;23.312;2023-05-20T10:09:44;145315.59;;;28.84;38.90
788;BME280;16074;42.708;23.312;2023-05-20T10:12:22;145296.03;;;28.76;37.62
788;BME280;16074;42.708;23.312;2023-05-20T10:15:01;145341.31;;;28.94;38.14
788;BME280;16074;42.708;23.312;2023-05-20T10:17:38;145429.44;;;29.30;37.19
788;BME280;16074;42.708;23.312;2023-05-20T10:20:10;145469.84;;;29.46;36.53
788;BME280;16074;42.708;23.312;2023-05-20T10:22:38;145560.41;;;29.83;35.30
788;BME280;16074;42.708;23.312;2023-05-20T10:25:11;145622.88;;;30.09;35.36
788;BME280;16074;42.708;23.312;2023-05-20T10:27:43;145764.97;;;30.66;35.10
788;BME280;16074;42.708;23.312;2023-05-20T10:30:16;145785.81;;;30.75;34.38
788;BME280;16074;42.708;23.312;2023-05-20T10:32:51;145696.38;;;30.39;33.68
788;BME280;16074;42.708;23.312;2023-05-20T10:35:23;145764.97;;;30.66;34.24
788;BME280;16074;42.708;23.312;2023-05-20T10:37:54;145896.13;;;31.20;33.60
788;BME280;16074;42.708;23.312;2023-05-20T10:40:33;145910.81;;;31.26;32.84
788;BME280;16074;42.708;23.312;2023-05-20T10:43:08;146001.53;;;31.63;31.56
788;BME280;16074;42.708;23.312;2023-05-20T10:45:47;145975.78;;;31.52;32.47
788;BME280;16074;42.708;23.312;2023-05-20T10:48:23;145972.06;;;31.51;32.48
788;BME280;16074;42.708;23.312;2023-05-20T10:50:55;146073.88;;;31.92;31.77
788;BME280;16074;42.708;23.312;2023-05-20T10:53:26;146126.63;;;32.13;30.96
788;BME280;16074;42.708;23.312;2023-05-20T10:56:00;146228.44;;;32.55;30.50
788;BME280;16074;42.708;23.312;2023-05-20T10:58:36;146227.22;;;32.54;30.92
788;BME280;16074;42.708;23.312;2023-05-20T11:01:04;146207.59;;;32.46;30.60
788;BME280;16074;42.708;23.312;2023-05-20T11:03:35;146224.78;;;32.53;31.14
788;BME280;16074;42.708;23.312;2023-05-20T11:06:10;146273.84;;;32.73;30.72
788;BME280;16074;42.708;23.312;2023-05-20T11:08:42;146319.22;;;32.92;30.83
788;BME280;16074;42.708;23.312;2023-05-20T11:11:10;146299.66;;;32.84;30.59
788;BME280;16074;42.708;23.312;2023-05-20T11:13:40;146423.59;;;33.34;30.01
788;BME280;16074;42.708;23.312;2023-05-20T11:16:08;146356.06;;;33.07;30.41
788;BME280;16074;42.708;23.312;2023-05-20T11:18:38;146379.41;;;33.16;30.71
788;BME280;16074;42.708;23.312;2023-05-20T11:21:06;146348.69;;;33.04;30.17
788;BME280;16074;42.708;23.312;2023-05-20T11:23:36;146359.75;;;33.08;30.33
788;BME280;16074;42.708;23.312;2023-05-20T11:26:06;146275.09;;;32.74;31.35
788;BME280;16074;42.708;23.312;2023-05-20T11:28:35;146300.84;;;32.84;31.78
788;BME280;16074;42.708;23.312;2023-05-20T11:31:04;146294.75;;;32.82;31.83
788;BME280;16074;42.708;23.312;2023-05-20T11:33:33;146241.91;;;32.60;29.95
788;BME280;16074;42.708;23.312;2023-05-20T11:36:03;146251.75;;;32.64;29.65
788;BME280;16074;42.708;23.312;2023-05-20T11:38:36;146248.06;;;32.63;31.33
788;BME280;16074;42.708;23.312;2023-05-20T11:41:04;146272.66;;;32.73;31.75
788;BME280;16074;42.708;23.312;2023-05-20T11:43:33;146094.75;;;32.00;31.99
788;BME280;16074;42.708;23.312;2023-05-20T11:46:03;146007.69;;;31.65;32.17
788;BME280;16074;42.708;23.312;2023-05-20T11:48:32;145965.97;;;31.48;32.21
788;BME280;16074;42.708;23.312;2023-05-20T11:51:03;145843.41;;;30.98;33.55
788;BME280;16074;42.708;23.312;2023-05-20T11:53:31;145913.28;;;31.27;33.70
788;BME280;16074;42.708;23.312;2023-05-20T11:56:00;145918.19;;;31.29;33.20
788;BME280;16074;42.708;23.312;2023-05-20T11:58:29;145839.69;;;30.97;33.69
788;BME280;16074;42.708;23.312;2023-05-20T12:00:58;145870.41;;;31.09;33.35
788;BME280;16074;42.708;23.312;2023-05-20T12:03:46;146016.25;;;31.69;32.24
788;BME280;16074;42.708;23.312;2023-05-20T12:06:17;146153.63;;;32.24;32.68
788;BME280;16074;42.708;23.312;2023-05-20T12:08:45;146172.00;;;32.32;32.37
788;BME280;16074;42.708;23.312;2023-05-20T12:11:13;146137.69;;;32.18;31.80
788;BME280;16074;42.708;23.312;2023-05-20T12:13:42;146162.22;;;32.28;30.91
788;BME280;16074;42.708;23.312;2023-05-20T12:16:10;146243.16;;;32.61;31.58
788;BME280;16074;42.708;23.312;2023-05-20T12:18:39;146286.13;;;32.78;30.96
788;BME280;16074;42.708;23.312;2023-05-20T12:21:08;146205.13;;;32.45;31.48
788;BME280;16074;42.708;23.312;2023-05-20T12:23:37;146205.13;;;32.45;30.73
788;BME280;16074;42.708;23.312;2023-05-20T12:26:06;146216.16;;;32.50;30.98
788;BME280;16074;42.708;23.312;2023-05-20T12:28:35;146239.44;;;32.59;30.72
788;BME280;16074;42.708;23.312;2023-05-20T12:31:03;146256.66;;;32.66;30.50
788;BME280;16074;42.708;23.312;2023-05-20T12:33:31;146214.97;;;32.49;29.39
788;BME280;16074;42.708;23.312;2023-05-20T12:36:00;146165.88;;;32.29;29.84
788;BME280;16074;42.708;23.312;2023-05-20T12:38:28;146134.00;;;32.16;30.28
788;BME280;16074;42.708;23.312;2023-05-20T12:40:58;146168.34;;;32.30;31.01
788;BME280;16074;42.708;23.312;2023-05-20T12:43:26;145850.75;;;31.01;32.60
788;BME280;16074;42.708;23.312;2023-05-20T12:45:55;145556.75;;;29.82;32.02
788;BME280;16074;42.708;23.312;2023-05-20T12:48:23;145331.53;;;28.90;31.89
788;BME280;16074;42.708;23.312;2023-05-20T12:50:51;145028.22;;;27.67;33.56
788;BME280;16074;42.708;23.312;2023-05-20T12:53:20;144925.56;;;27.25;34.72
788;BME280;16074;42.708;23.312;2023-05-20T12:55:48;144793.59;;;26.71;35.57
788;BME280;16074;42.708;23.312;2023-05-20T12:58:18;144964.66;;;27.41;35.25
788;BME280;16074;42.708;23.312;2023-05-20T13:00:46;144951.25;;;27.35;35.41
788;BME280;16074;42.708;23.312;2023-05-20T13:03:14;144902.38;;;27.15;35.37
788;BME280;16074;42.708;23.312;2023-05-20T13:05:43;144752.13;;;26.54;36.08
788;BME280;16074;42.708;23.312;2023-05-20T13:08:12;144887.69;;;27.09;35.22
788;BME280;16074;42.708;23.312;2023-05-20T13:10:40;145094.25;;;27.94;34.73